Terminal Aerodrome Forecast
Issued by NWS Cleveland, OH

Home | Current Version | Previous Version | Graphics & Text | Print | Product List | Glossary On
Versions: 1 2 3 4 5 6 7 8 9 10 11 12 13 14 15 16
000
FTUS41 KCLE 230500
TAFYNG
TAF
KYNG 230528Z 2306/2406 26009KT P6SM VCSH BKN035 OVC050
      TEMPO 2306/2310 3SM -SHSN BKN025
     FM231300 28012G20KT P6SM VCSH BKN025 OVC040
     FM231600 29015G25KT P6SM VCSH BKN035 OVC050
     FM240000 30009KT P6SM VCSH BKN040=

USA.gov is the U.S. government's official web portal to all federal, state and local government web resources and services.